Time;durP1;ratioP1;P1;durP2;ratioP2;P2;SDS_P1;SDS_P2;PMS_P1;PMS_P2;Temp;Humidity;BMP_temperature;BMP_pressure;BME280_temperature;BME280_humidity;BME280_pressure;Samples;Min_cycle;Max_cycle;Signal;HPM_P1;HPM_P2
2023/09/21 00:00:40;;;;;;;5.97;3.60;;;15.40;94.00;;;15.21;90.88;97123.25;5068379;28;21201;-76
2023/09/21 00:03:08;;;;;;;4.00;3.60;;;15.40;94.00;;;15.13;91.15;97110.97;5064980;28;20492;-72
2023/09/21 00:05:39;;;;;;;4.80;4.23;;;15.40;94.10;;;15.19;90.90;97125.41;5068236;28;20461;-72
2023/09/21 00:08:06;;;;;;;5.00;4.43;;;15.30;94.10;;;15.10;91.42;97116.97;5062104;28;20444;-75
2023/09/21 00:10:35;;;;;;;4.83;3.40;;;15.30;94.70;;;15.06;92.31;97115.84;5068981;28;21196;-73
2023/09/21 00:13:04;;;;;;;4.27;3.57;;;15.20;94.70;;;14.98;92.27;97111.72;5068028;28;20457;-74
2023/09/21 00:15:32;;;;;;;4.00;3.70;;;15.20;95.30;;;14.92;93.08;97104.63;5080617;28;20469;-73
2023/09/21 00:18:00;;;;;;;4.27;3.87;;;15.10;95.40;;;14.80;93.04;97091.28;5071091;28;20450;-72
2023/09/21 00:20:29;;;;;;;4.20;3.90;;;15.00;95.90;;;14.87;93.80;97103.53;5089863;28;20835;-74
2023/09/21 00:22:59;;;;;;;6.70;4.60;;;15.00;95.80;;;14.71;94.45;97102.66;5075197;28;20453;-74
2023/09/21 00:25:28;;;;;;;4.67;4.27;;;14.90;96.30;;;14.76;94.47;97101.84;5070848;28;20986;-74
2023/09/21 00:27:55;;;;;;;5.20;4.30;;;14.80;96.90;;;14.68;94.88;97089.56;5069380;28;20464;-74
2023/09/21 00:30:24;;;;;;;4.30;3.90;;;14.80;97.30;;;14.75;94.69;97099.41;5068266;28;20459;-72
2023/09/21 00:32:51;;;;;;;5.07;4.07;;;14.80;97.40;;;14.92;93.97;97097.28;5070379;28;20461;-78
2023/09/21 00:35:19;;;;;;;7.00;4.17;;;15.00;96.90;;;14.98;93.21;97092.69;5071364;28;20556;-79
2023/09/21 00:37:47;;;;;;;4.20;3.90;;;15.00;96.20;;;14.87;92.73;97081.78;5066866;28;20459;-80
2023/09/21 00:40:22;;;;;;;6.53;3.97;;;15.00;95.90;;;15.11;92.35;97085.94;5065145;28;20459;-82
2023/09/21 00:42:51;;;;;;;5.57;4.37;;;15.00;96.20;;;15.06;91.92;97064.16;5068547;28;20465;-79
2023/09/21 00:45:21;;;;;;;6.43;4.40;;;15.10;95.70;;;15.12;91.98;97084.84;5071402;28;20445;-79
2023/09/21 00:47:52;;;;;;;5.90;4.33;;;15.20;95.30;;;15.12;90.92;97076.69;5052155;28;20453;-78
2023/09/21 00:50:23;;;;;;;6.67;3.90;;;15.20;95.00;;;15.07;91.84;97068.50;5068948;28;20541;-79
2023/09/21 00:52:52;;;;;;;4.17;3.77;;;15.10;94.90;;;15.07;91.74;97072.06;5067442;28;20520;-79
2023/09/21 00:55:24;;;;;;;4.47;4.07;;;15.10;95.40;;;14.91;92.45;97054.84;5068917;28;20534;-79
2023/09/21 00:57:55;;;;;;;7.53;4.40;;;14.90;95.80;;;15.01;92.07;97065.78;5079106;28;20452;-80
2023/09/21 01:00:25;;;;;;;4.20;3.80;;;14.90;96.40;;;14.95;91.81;97045.09;5064632;28;20551;-79
2023/09/21 01:02:58;;;;;;;4.80;4.30;;;15.00;96.00;;;14.85;92.34;97040.44;5069053;28;20801;-79
2023/09/21 01:05:25;;;;;;;6.43;4.30;;;15.00;95.70;;;14.90;92.68;97064.09;5069068;28;20540;-79
2023/09/21 01:07:58;;;;;;;5.13;4.00;;;14.90;95.70;;;14.78;93.67;97060.78;5069245;28;20458;-79
2023/09/21 01:10:25;;;;;;;5.13;4.40;;;14.80;96.10;;;14.91;92.63;97056.78;5060069;28;20965;-79
2023/09/21 01:12:53;;;;;;;5.43;3.83;;;14.90;96.50;;;14.83;92.69;97050.75;5067739;28;21015;-79
2023/09/21 01:15:22;;;;;;;5.07;4.50;;;14.90;96.00;;;14.79;92.69;97055.09;5066391;28;20469;-79
2023/09/21 01:17:49;;;;;;;5.03;3.63;;;14.80;95.70;;;14.38;93.01;97001.38;5067164;28;20460;-80
2023/09/21 01:20:22;;;;;;;5.00;4.33;;;14.80;95.90;;;14.63;92.58;97040.59;5067350;28;20457;-80
2023/09/21 01:23:04;;;;;;;4.53;4.00;;;14.80;95.80;;;14.60;93.45;97049.28;5066415;28;20462;-80
2023/09/21 01:25:33;;;;;;;5.77;4.40;;;14.70;95.70;;;14.59;93.32;97048.47;5083496;28;20502;-80
2023/09/21 01:28:02;;;;;;;6.53;4.30;;;14.70;95.80;;;14.58;92.87;97041.41;5059263;28;20519;-80
2023/09/21 01:30:29;;;;;;;6.43;4.63;;;14.80;95.30;;;14.59;93.06;97039.50;5063556;28;20445;-80
2023/09/21 01:32:57;;;;;;;4.47;3.77;;;14.80;95.30;;;14.55;92.95;97041.91;5061863;28;20485;-79
2023/09/21 01:35:28;;;;;;;4.80;4.17;;;14.80;95.20;;;14.39;92.91;97022.03;5065971;28;20576;-80
2023/09/21 01:37:56;;;;;;;5.03;4.53;;;14.70;94.90;;;14.40;92.91;97020.94;5063208;28;21152;-79
2023/09/21 01:40:23;;;;;;;5.90;4.90;;;14.70;95.00;;;14.45;92.81;97020.94;5066063;28;20448;-79
2023/09/21 01:42:52;;;;;;;5.33;4.30;;;14.60;95.30;;;14.44;92.95;97019.31;5058074;28;21329;-77
2023/09/21 01:45:21;;;;;;;5.10;4.60;;;14.60;95.60;;;14.47;92.90;97020.69;5065575;28;20461;-80
2023/09/21 01:47:48;;;;;;;5.47;4.87;;;14.60;95.50;;;14.29;93.12;97000.22;5068640;28;20456;-78
2023/09/21 01:50:21;;;;;;;4.83;3.90;;;14.60;95.50;;;14.33;93.83;97033.97;5063483;28;20531;-80
2023/09/21 01:52:50;;;;;;;7.10;4.40;;;14.50;95.70;;;14.17;94.79;97031.13;5060101;28;20449;-78
2023/09/21 01:55:18;;;;;;;4.73;4.23;;;14.30;96.40;;;14.00;95.49;97019.63;5056883;28;20919;-81
2023/09/21 01:57:46;;;;;;;5.33;4.80;;;14.30;97.00;;;13.92;96.52;97028.28;5052639;28;20449;-79
2023/09/21 02:00:25;;;;;;;7.97;4.97;;;14.10;97.40;;;13.97;96.72;97017.44;5063221;28;20446;-79
2023/09/21 02:02:53;;;;;;;6.30;5.17;;;14.10;98.40;;;13.97;95.73;97009.28;5064996;28;20468;-78
2023/09/21 02:05:21;;;;;;;6.10;4.90;;;14.20;97.70;;;14.09;96.09;97023.50;5064962;28;21107;-79
2023/09/21 02:07:48;;;;;;;6.73;5.00;;;14.20;97.60;;;14.08;95.45;97011.00;5062874;28;20462;-79
2023/09/21 02:10:17;;;;;;;8.43;5.23;;;14.30;97.30;;;14.15;95.29;97017.00;5067530;28;20457;-80
2023/09/21 02:12:56;;;;;;;12.07;5.17;;;14.30;97.00;;;14.01;95.31;97011.22;5067020;28;20460;-78
2023/09/21 02:15:27;;;;;;;5.93;4.90;;;14.20;96.80;;;14.01;95.78;97022.09;5063590;28;20475;-77
2023/09/21 02:17:56;;;;;;;9.77;5.13;;;14.10;97.60;;;13.94;96.17;97017.97;5058793;28;20446;-78
2023/09/21 02:20:24;;;;;;;6.80;4.67;;;14.00;98.20;;;13.96;96.00;97018.53;5060759;28;20468;-79
2023/09/21 02:22:53;;;;;;;6.23;5.60;;;13.90;98.40;;;13.95;95.76;97014.16;5066700;28;20492;-77
2023/09/21 02:25:22;;;;;;;11.80;5.17;;;13.90;99.00;;;13.73;95.33;96950.78;5060448;28;20465;-78
2023/09/21 02:27:49;;;;;;;6.93;5.17;;;14.00;98.60;;;14.15;94.40;97010.75;5063934;28;20544;-78
2023/09/21 02:30:21;;;;;;;7.33;6.20;;;14.10;97.90;;;14.11;94.86;97009.66;5063696;28;20457;-79
2023/09/21 02:32:51;;;;;;;5.63;5.13;;;14.10;97.20;;;14.08;94.48;96997.41;5057358;28;20531;-78
2023/09/21 02:35:23;;;;;;;6.50;5.33;;;14.10;97.20;;;14.06;94.88;97007.72;5065412;28;20464;-78
2023/09/21 02:37:53;;;;;;;7.67;5.50;;;14.10;97.00;;;13.94;95.19;97004.41;5058985;28;21013;-78
2023/09/21 02:40:22;;;;;;;5.63;5.10;;;14.00;97.10;;;13.87;95.42;96994.56;5074892;28;20450;-78
2023/09/21 02:42:52;;;;;;;7.47;5.50;;;14.00;97.60;;;13.96;95.45;97004.94;5061914;28;20457;-82
2023/09/21 02:45:23;;;;;;;6.80;6.10;;;14.00;97.60;;;13.71;95.57;96973.81;5063002;28;20457;-79
2023/09/21 02:47:55;;;;;;;7.97;6.00;;;14.00;97.60;;;13.91;95.94;96991.34;5057074;28;20849;-78
2023/09/21 02:50:25;;;;;;;9.80;5.77;;;14.00;98.30;;;13.87;96.15;96988.34;5082414;28;20449;-78
2023/09/21 02:52:55;;;;;;;8.67;5.50;;;14.00;97.60;;;13.73;96.65;96988.78;5064914;28;20456;-78
2023/09/21 02:55:23;;;;;;;9.13;6.13;;;13.90;97.40;;;13.63;97.42;96988.69;5083670;28;20459;-78
2023/09/21 02:57:57;;;;;;;8.37;6.23;;;13.80;98.00;;;13.51;97.65;96974.53;5062541;28;20463;-77
2023/09/21 03:00:34;;;;;;;10.43;6.60;;;13.70;98.70;;;13.50;98.25;96981.84;5063814;28;20466;-77
2023/09/21 03:03:04;;;;;;;6.97;6.10;;;13.60;99.30;;;13.41;98.55;96983.34;5067710;28;20460;-78
2023/09/21 03:05:33;;;;;;;7.47;5.97;;;13.50;99.90;;;13.31;99.78;96976.78;5075822;28;20470;-78
2023/09/21 03:08:09;;;;;;;9.03;6.80;;;13.50;99.90;;;13.24;100.00;96987.00;5079664;28;20444;-80
2023/09/21 03:10:37;;;;;;;6.37;5.73;;;13.40;99.90;;;13.23;100.00;96985.38;5078553;28;20455;-77
2023/09/21 03:13:05;;;;;;;6.50;5.30;;;13.40;99.90;;;13.20;100.00;96969.63;5075467;28;20456;-78
2023/09/21 03:15:34;;;;;;;7.60;6.10;;;13.30;99.90;;;13.29;100.00;96978.94;5090836;28;20533;-77
2023/09/21 03:18:10;;;;;;;10.40;5.93;;;13.40;99.90;;;13.30;100.00;96979.75;5068261;28;20475;-78
2023/09/21 03:20:38;;;;;;;8.60;6.60;;;13.40;99.90;;;13.26;100.00;96979.44;5067407;28;20811;-79
2023/09/21 03:23:09;;;;;;;7.97;7.17;;;13.40;99.90;;;13.26;100.00;96963.16;5065677;28;20994;-79
2023/09/21 03:25:40;;;;;;;8.43;6.00;;;13.50;99.90;;;13.41;100.00;96969.78;5066535;28;20453;-77
2023/09/21 03:28:13;;;;;;;7.47;5.87;;;13.50;99.90;;;13.22;100.00;96959.34;5079990;28;21212;-79
2023/09/21 03:30:40;;;;;;;8.13;6.27;;;13.50;99.90;;;13.12;100.00;96951.13;5073505;28;20924;-79
2023/09/21 03:33:10;;;;;;;7.37;6.20;;;13.40;99.90;;;13.13;100.00;96963.63;5065724;28;20467;-78
2023/09/21 03:35:37;;;;;;;9.00;6.63;;;13.40;99.90;;;13.14;100.00;96970.66;5074262;28;20472;-77
2023/09/21 03:38:06;;;;;;;9.67;6.60;;;13.30;99.90;;;13.09;100.00;96946.19;5071195;28;20456;-80
2023/09/21 03:40:33;;;;;;;8.00;6.37;;;13.30;99.90;;;13.07;100.00;96949.19;5068932;28;20463;-78
2023/09/21 03:43:00;;;;;;;7.43;6.20;;;13.30;99.90;;;13.06;100.00;96936.72;5071275;28;20924;-78
2023/09/21 03:45:29;;;;;;;10.57;6.23;;;13.30;99.90;;;13.44;100.00;96955.75;5070217;28;21137;-79
2023/09/21 03:48:01;;;;;;;6.87;5.63;;;13.50;99.90;;;13.58;99.47;96948.81;5069918;28;20452;-78
2023/09/21 03:50:31;;;;;;;8.93;5.67;;;13.70;99.90;;;13.51;98.87;96937.34;5067146;28;20535;-79
2023/09/21 03:52:59;;;;;;;8.47;6.40;;;13.70;99.90;;;13.63;98.78;96953.41;5067969;28;20453;-79
2023/09/21 03:55:26;;;;;;;7.37;6.40;;;13.80;99.90;;;13.62;99.48;96953.69;5061134;28;20453;-77
2023/09/21 03:57:54;;;;;;;9.67;5.93;;;13.90;99.60;;;13.55;100.00;96953.94;5070258;28;20442;-79
2023/09/21 04:00:29;;;;;;;12.33;6.60;;;13.80;99.40;;;13.57;99.74;96949.06;5060215;28;20996;-79
2023/09/21 04:02:58;;;;;;;6.23;5.40;;;13.80;99.50;;;13.50;99.40;96933.00;5068789;28;20449;-78
2023/09/21 04:05:28;;;;;;;9.60;6.30;;;13.80;99.10;;;13.50;99.62;96930.28;5070148;28;20551;-79
2023/09/21 04:07:58;;;;;;;9.13;5.90;;;13.80;99.70;;;13.50;99.68;96943.84;5067048;28;20812;-78
2023/09/21 04:10:30;;;;;;;6.50;5.60;;;13.80;99.40;;;13.53;99.92;96939.81;5064637;28;20513;-80
2023/09/21 04:12:58;;;;;;;8.67;6.23;;;13.80;99.70;;;13.52;100.00;96930.84;5068887;28;20456;-80
2023/09/21 04:15:27;;;;;;;6.33;5.30;;;13.80;99.70;;;13.47;100.00;96930.81;5070869;28;20452;-80
2023/09/21 04:17:55;;;;;;;6.03;5.20;;;13.70;99.90;;;13.32;100.00;96910.59;5062189;28;20499;-80
2023/09/21 04:20:23;;;;;;;8.93;5.20;;;13.70;99.90;;;13.32;100.00;96918.75;5066838;28;20456;-79
2023/09/21 04:22:52;;;;;;;5.97;5.37;;;13.70;99.90;;;13.36;100.00;96923.63;5067171;28;20577;-80
2023/09/21 04:25:20;;;;;;;6.10;4.93;;;13.60;99.90;;;13.27;100.00;96924.13;5066169;28;20481;-79
2023/09/21 04:27:50;;;;;;;7.47;6.10;;;13.50;99.90;;;13.31;100.00;96917.09;5065319;28;20460;-79
2023/09/21 04:30:21;;;;;;;5.53;5.03;;;13.50;99.90;;;13.43;100.00;96910.69;5080490;28;20548;-80
2023/09/21 04:32:49;;;;;;;7.00;5.50;;;13.60;99.90;;;12.89;100.00;96839.22;5059467;28;21367;-81
2023/09/21 04:35:19;;;;;;;5.67;5.17;;;13.60;99.90;;;13.38;100.00;96907.91;5072583;28;20535;-80
2023/09/21 04:37:50;;;;;;;5.33;4.40;;;13.70;99.90;;;13.35;100.00;96911.97;5063559;28;20888;-78
2023/09/21 04:40:22;;;;;;;6.03;5.37;;;13.70;99.80;;;13.39;100.00;96909.53;5068000;28;20563;-78
2023/09/21 04:42:49;;;;;;;5.90;5.40;;;13.70;99.90;;;13.42;100.00;96906.31;5065649;28;20477;-81
2023/09/21 04:45:18;;;;;;;5.60;5.20;;;13.70;99.90;;;13.47;100.00;96906.38;5062992;28;21102;-79
2023/09/21 04:47:49;;;;;;;7.93;5.40;;;13.70;99.90;;;13.52;100.00;96895.56;5065584;28;20450;-78
2023/09/21 04:50:18;;;;;;;6.97;5.00;;;13.70;99.90;;;13.59;100.00;96895.34;5068538;28;20459;-80
2023/09/21 04:52:48;;;;;;;5.57;5.13;;;13.80;99.90;;;13.59;99.72;96881.75;5063351;28;20461;-78
2023/09/21 04:55:16;;;;;;;7.60;4.90;;;13.80;99.90;;;13.79;98.80;96900.06;5082938;28;20461;-80
2023/09/21 04:57:45;;;;;;;4.83;4.33;;;13.80;99.90;;;13.78;98.66;96903.84;5059763;28;21007;-79
2023/09/21 05:00:13;;;;;;;5.60;5.10;;;13.80;99.80;;;13.74;98.84;96897.31;5068994;28;20527;-78
2023/09/21 05:02:41;;;;;;;5.33;4.83;;;13.80;99.90;;;13.64;99.73;96891.84;5062362;28;20481;-81
2023/09/21 05:05:09;;;;;;;4.93;4.53;;;13.80;99.90;;;13.68;99.93;96891.06;5067438;28;21025;-79
2023/09/21 05:07:36;;;;;;;5.93;5.33;;;13.70;99.90;;;13.88;99.84;96895.78;5062936;28;21039;-79
2023/09/21 05:10:07;;;;;;;5.77;5.27;;;13.80;99.90;;;13.77;99.83;96898.69;5061022;28;20531;-79
2023/09/21 05:12:34;;;;;;;6.13;5.00;;;13.90;99.90;;;13.84;99.54;96897.34;5062301;28;20469;-78
2023/09/21 05:15:08;;;;;;;7.60;5.67;;;14.00;99.90;;;14.05;97.96;96897.47;5079362;28;20771;-79
2023/09/21 05:17:37;;;;;;;5.23;4.73;;;14.20;99.60;;;14.20;96.48;96890.47;5058990;28;20504;-81
2023/09/21 05:20:06;;;;;;;8.37;5.00;;;14.30;98.30;;;14.16;96.14;96899.13;5062381;28;20496;-81
2023/09/21 05:22:33;;;;;;;5.60;5.00;;;14.40;97.10;;;13.57;96.34;96822.34;5059598;28;21822;-82
2023/09/21 05:25:02;;;;;;;8.20;5.43;;;14.40;96.80;;;14.14;96.35;96897.78;5062067;28;20459;-83
2023/09/21 05:27:30;;;;;;;5.57;4.73;;;14.40;96.60;;;13.99;95.36;96855.06;5061877;28;20441;-83
2023/09/21 05:29:57;;;;;;;4.50;4.10;;;14.40;96.70;;;14.10;95.58;96877.63;5055985;28;20452;-73
2023/09/21 05:32:29;;;;;;;5.43;4.93;;;14.40;96.40;;;14.25;94.56;96885.03;5055690;28;20539;-84
2023/09/21 05:34:57;;;;;;;5.03;4.63;;;14.50;96.10;;;14.07;95.09;96857.28;5057929;28;20462;-83
2023/09/21 05:37:26;;;;;;;5.70;5.03;;;14.50;96.00;;;14.26;94.83;96886.66;5054443;28;20472;-82
2023/09/21 05:39:53;;;;;;;6.50;4.90;;;14.60;95.80;;;14.50;93.77;96894.34;5063075;28;20464;-83
2023/09/21 05:42:23;;;;;;;6.00;5.30;;;14.60;95.50;;;14.63;93.11;96890.28;5059515;28;20489;-83
2023/09/21 05:44:51;;;;;;;10.00;5.70;;;14.70;95.40;;;14.73;92.67;96888.44;5058842;28;20453;-79
2023/09/21 05:47:19;;;;;;;5.73;5.20;;;14.80;95.10;;;14.73;92.51;96884.91;5062594;28;20510;-84
2023/09/21 05:49:49;;;;;;;7.40;5.77;;;14.90;94.70;;;14.78;91.71;96886.78;5059399;28;20444;-77
2023/09/21 05:52:18;;;;;;;5.33;4.83;;;14.90;94.20;;;14.54;91.58;96851.94;5078405;28;20467;-83
2023/09/21 05:54:46;;;;;;;6.77;5.10;;;14.90;94.00;;;14.75;91.82;96873.75;5069153;28;20456;-80
2023/09/21 05:57:15;;;;;;;11.93;6.30;;;15.00;94.00;;;14.85;91.01;96881.91;5074680;28;20472;-85
2023/09/21 05:59:43;;;;;;;7.97;5.73;;;15.00;93.80;;;14.75;90.87;96874.56;5057778;28;20522;-86
2023/09/21 06:02:13;;;;;;;7.03;5.20;;;15.10;93.40;;;14.97;90.24;96879.75;5087919;28;20499;-86
2023/09/21 06:04:42;;;;;;;8.73;6.17;;;15.20;93.30;;;15.01;89.77;96880.84;5088185;28;20466;-86
2023/09/21 06:07:11;;;;;;;9.80;5.63;;;15.20;93.00;;;15.33;89.27;96875.38;5091329;28;20457;-87
2023/09/21 06:09:39;;;;;;;8.53;6.37;;;15.40;93.20;;;15.26;87.52;96860.16;5078166;28;20463;-84
2023/09/21 06:12:07;;;;;;;8.30;5.83;;;15.60;92.30;;;15.01;87.45;96825.59;5087151;28;20467;-85
2023/09/21 06:14:36;;;;;;;8.73;5.67;;;15.70;91.90;;;15.13;86.48;96828.06;5089573;28;20458;-84
2023/09/21 06:17:05;;;;;;;6.53;5.60;;;15.80;91.60;;;15.66;86.42;96875.84;5092488;28;20543;-83
2023/09/21 06:19:34;;;;;;;6.07;5.40;;;16.00;91.50;;;15.71;84.88;96870.41;5077293;28;20464;-84
2023/09/21 06:22:05;;;;;;;7.87;5.57;;;16.10;91.30;;;16.17;83.14;96882.25;5071341;28;20453;-82
2023/09/21 06:24:43;;;;;;;7.30;5.50;;;16.30;90.90;;;16.02;83.02;96875.78;5068650;28;20458;-83
2023/09/21 06:27:10;;;;;;;7.33;6.50;;;16.40;90.60;;;16.16;82.44;96869.72;5067731;28;20533;-81
2023/09/21 06:29:37;;;;;;;6.30;5.17;;;16.40;90.50;;;16.20;82.56;96881.69;5069452;28;20519;-82
2023/09/21 06:32:08;;;;;;;11.47;6.27;;;16.50;90.50;;;16.22;82.14;96879.50;5060639;28;20996;-84
2023/09/21 06:34:36;;;;;;;9.70;5.80;;;16.50;90.40;;;16.48;81.50;96871.19;5067692;28;20465;-82
2023/09/21 06:37:04;;;;;;;6.30;5.30;;;16.60;90.40;;;16.69;79.72;96864.47;5053035;28;20478;-83
2023/09/21 06:39:32;;;;;;;7.93;5.73;;;16.90;90.10;;;16.53;80.83;96857.50;5052040;28;20776;-82
2023/09/21 06:42:01;;;;;;;10.50;6.50;;;16.90;90.00;;;15.93;81.49;96809.34;5057835;28;20790;-81
2023/09/21 06:44:29;;;;;;;8.70;6.47;;;16.70;89.90;;;16.26;81.98;96858.75;5064379;28;20517;-82
2023/09/21 06:46:56;;;;;;;12.30;6.70;;;16.60;90.00;;;16.25;82.06;96857.13;5060946;28;20450;-78
2023/09/21 06:49:24;;;;;;;8.13;6.20;;;16.60;90.10;;;16.28;82.43;96862.00;5073087;28;20464;-77
2023/09/21 06:51:56;;;;;;;9.60;5.60;;;16.60;90.30;;;16.13;82.03;96825.56;5065858;28;20467;-78
2023/09/21 06:54:24;;;;;;;11.47;6.00;;;16.60;90.20;;;16.47;81.73;96864.09;5069733;28;20449;-77
2023/09/21 06:56:51;;;;;;;11.40;6.60;;;16.70;90.20;;;16.20;81.54;96802.66;5058500;28;20507;-77
2023/09/21 06:59:19;;;;;;;9.83;5.60;;;16.80;90.30;;;16.81;80.95;96857.88;5058652;28;20436;-79
2023/09/21 07:01:47;;;;;;;7.40;6.23;;;16.90;90.30;;;16.75;81.49;96850.81;5069001;28;21008;-77
2023/09/21 07:04:15;;;;;;;6.30;5.40;;;16.90;90.30;;;16.87;80.94;96862.16;5057746;28;20663;-75
2023/09/21 07:06:42;;;;;;;7.90;5.93;;;17.00;90.20;;;16.79;81.66;96849.16;5079098;28;20447;-76
2023/09/21 07:09:10;;;;;;;8.80;5.67;;;17.10;90.30;;;16.96;81.39;96844.09;5063986;28;20869;-76
2023/09/21 07:11:37;;;;;;;6.50;5.87;;;17.10;90.30;;;17.20;80.40;96853.47;5061662;28;20471;-81
2023/09/21 07:14:05;;;;;;;6.87;5.20;;;17.30;90.30;;;17.41;79.35;96854.91;5063681;28;20532;-80
2023/09/21 07:16:35;;;;;;;6.00;5.40;;;17.40;90.10;;;17.36;79.08;96848.66;5067262;28;20820;-81
2023/09/21 07:19:04;;;;;;;6.60;5.73;;;17.50;90.00;;;17.52;79.07;96861.09;5061796;28;20469;-81
2023/09/21 07:21:32;;;;;;;7.17;5.53;;;17.60;90.00;;;17.48;79.26;96849.09;5065284;28;20536;-79
2023/09/21 07:23:59;;;;;;;6.67;5.70;;;17.60;90.00;;;17.56;79.03;96848.47;5071630;28;20504;-81
2023/09/21 07:26:27;;;;;;;8.90;6.83;;;17.60;90.00;;;17.47;79.36;96863.84;5059181;28;20454;-77
2023/09/21 07:28:55;;;;;;;9.60;6.33;;;17.70;90.00;;;17.32;80.66;96853.09;5059934;28;21307;-80
2023/09/21 07:31:23;;;;;;;6.33;5.53;;;17.50;90.10;;;17.48;80.32;96853.75;5068432;28;20459;-78
2023/09/21 07:33:56;;;;;;;6.57;5.90;;;17.60;90.20;;;17.61;80.21;96842.16;5061724;28;20471;-80
2023/09/21 07:36:27;;;;;;;8.30;5.93;;;17.70;90.40;;;17.80;78.87;96842.19;5059494;28;20462;-80
2023/09/21 07:38:56;;;;;;;6.10;5.50;;;17.90;90.10;;;17.90;78.65;96843.19;5063364;28;20468;-80
2023/09/21 07:41:23;;;;;;;7.97;5.70;;;18.00;89.90;;;18.05;78.08;96837.56;5058584;28;20475;-71
2023/09/21 07:43:51;;;;;;;9.47;5.67;;;18.10;90.00;;;17.88;78.07;96809.88;5063856;28;20455;-76
2023/09/21 07:46:18;;;;;;;7.90;5.90;;;18.20;89.90;;;18.38;76.82;96826.72;5059587;28;20456;-81
2023/09/21 07:48:48;;;;;;;5.47;5.03;;;18.30;89.50;;;18.51;76.40;96818.88;5064574;28;20456;-85
2023/09/21 07:51:19;;;;;;;8.60;5.63;;;18.60;89.60;;;18.73;75.33;96831.94;5058110;28;20730;-77
2023/09/21 07:53:46;;;;;;;5.50;4.93;;;18.80;88.90;;;18.65;76.32;96829.88;5056578;28;20459;-76
2023/09/21 07:56:16;;;;;;;11.80;6.30;;;18.90;89.00;;;18.64;76.18;96820.88;5059050;28;20467;-79
2023/09/21 07:58:43;;;;;;;5.57;5.07;;;19.00;88.90;;;18.78;76.05;96809.19;5062314;28;20984;-74
2023/09/21 08:01:10;;;;;;;5.97;5.33;;;19.00;88.90;;;18.93;75.53;96825.34;5057542;28;20456;-75
2023/09/21 08:03:38;;;;;;;6.00;5.23;;;19.10;88.80;;;18.90;76.08;96809.53;5061834;28;20460;-77
2023/09/21 08:06:07;;;;;;;6.23;5.50;;;19.10;89.00;;;18.96;75.53;96813.78;5060623;28;20536;-78
2023/09/21 08:08:37;;;;;;;8.47;5.07;;;19.20;88.80;;;18.98;75.58;96814.28;5061803;28;20480;-74
2023/09/21 08:11:06;;;;;;;7.50;6.17;;;19.20;88.70;;;18.85;76.34;96823.28;5072086;28;20885;-80
2023/09/21 08:13:34;;;;;;;5.93;5.30;;;19.10;88.70;;;18.82;76.71;96815.66;5071899;28;20474;-80
2023/09/21 08:16:02;;;;;;;7.40;5.40;;;19.00;88.80;;;18.96;76.18;96815.72;5071134;28;20459;-77
2023/09/21 08:18:30;;;;;;;5.40;4.90;;;19.10;88.90;;;19.17;75.76;96809.91;5069954;28;20521;-80
2023/09/21 08:20:58;;;;;;;5.77;5.10;;;19.20;89.00;;;19.32;75.15;96815.13;5087501;28;20940;-83
2023/09/21 08:23:25;;;;;;;5.20;4.70;;;19.30;88.80;;;19.53;73.93;96803.75;5064715;28;20467;-82
2023/09/21 08:25:55;;;;;;;5.83;5.23;;;19.50;88.60;;;19.60;73.76;96806.94;5075412;28;20954;-80
2023/09/21 08:28:22;;;;;;;8.23;5.37;;;19.70;88.50;;;19.69;73.62;96818.00;5063665;28;20557;-81
2023/09/21 08:30:50;;;;;;;6.73;5.30;;;19.80;88.20;;;19.57;74.02;96814.94;5062688;28;20468;-81
2023/09/21 08:33:18;;;;;;;5.90;5.37;;;19.80;88.10;;;19.59;74.39;96809.97;5066702;28;21034;-81
2023/09/21 08:35:45;;;;;;;8.30;4.93;;;19.80;88.20;;;19.89;73.49;96815.94;5065632;28;20447;-81
2023/09/21 08:38:12;;;;;;;6.67;6.07;;;20.00;88.20;;;19.73;72.82;96753.22;5059602;28;20484;-81
2023/09/21 08:40:46;;;;;;;7.90;6.47;;;20.20;88.00;;;20.29;71.70;96808.00;5074808;28;20462;-81
2023/09/21 08:43:22;;;;;;;5.77;5.27;;;20.30;87.50;;;20.31;70.86;96792.03;5080723;28;20953;-82
2023/09/21 08:45:51;;;;;;;5.17;4.70;;;20.50;87.00;;;20.65;70.75;96795.38;5075942;28;20495;-82
2023/09/21 08:48:22;;;;;;;8.10;5.43;;;20.70;87.20;;;20.77;70.20;96800.31;5091152;28;20449;-83
2023/09/21 08:50:51;;;;;;;6.73;4.83;;;20.90;86.80;;;20.86;70.16;96792.16;5085350;28;20445;-82
2023/09/21 08:53:21;;;;;;;5.20;4.70;;;21.00;86.80;;;20.74;70.06;96789.97;5091120;28;21663;-83
2023/09/21 08:55:49;;;;;;;5.97;5.20;;;21.00;86.30;;;20.89;70.36;96797.03;5082136;28;20466;-82
2023/09/21 08:58:23;;;;;;;5.63;5.07;;;21.00;86.50;;;20.91;69.87;96790.09;5081722;28;20476;-81
2023/09/21 09:00:55;;;;;;;5.10;4.60;;;21.00;86.40;;;20.86;69.36;96749.06;5065791;28;20956;-86
2023/09/21 09:03:25;;;;;;;6.60;5.00;;;21.10;86.40;;;21.34;68.58;96777.72;5060606;28;20537;-82
2023/09/21 09:05:55;;;;;;;5.70;4.53;;;21.30;86.20;;;21.49;68.42;96771.00;5057739;28;20449;-81
2023/09/21 09:08:23;;;;;;;5.20;4.70;;;21.50;86.30;;;21.55;68.31;96770.88;5058146;28;20449;-79
2023/09/21 09:10:51;;;;;;;4.93;4.43;;;21.60;86.10;;;21.34;68.24;96771.44;5058246;28;20465;-82
2023/09/21 09:13:19;;;;;;;5.87;4.20;;;21.60;85.50;;;21.33;68.72;96773.34;5057427;28;20471;-80
2023/09/21 09:15:48;;;;;;;4.70;4.07;;;21.50;85.60;;;21.35;68.13;96767.56;5059606;28;20527;-82
2023/09/21 09:18:15;;;;;;;4.90;4.50;;;21.60;85.30;;;21.25;68.49;96760.41;5061702;28;20833;-82
2023/09/21 09:20:44;;;;;;;5.10;4.60;;;21.50;85.40;;;21.71;67.62;96765.78;5056874;28;20516;-82
2023/09/21 09:23:14;;;;;;;7.53;4.13;;;21.70;85.50;;;21.85;67.33;96762.91;5055753;28;20556;-83
2023/09/21 09:25:43;;;;;;;3.97;3.57;;;21.90;85.40;;;21.98;66.35;96752.88;5058131;28;20452;-84
2023/09/21 09:28:11;;;;;;;4.20;3.40;;;22.00;85.00;;;21.91;65.99;96748.69;5051740;28;20457;-82
2023/09/21 09:30:41;;;;;;;5.83;3.80;;;22.10;84.50;;;21.74;66.21;96732.94;5053998;28;20557;-84
2023/09/21 09:33:12;;;;;;;6.63;3.97;;;21.90;84.10;;;21.67;66.00;96751.84;5053472;28;20471;-82
2023/09/21 09:35:41;;;;;;;4.43;3.53;;;21.90;83.90;;;21.55;66.02;96748.88;5059610;28;20927;-81
2023/09/21 09:38:10;;;;;;;4.57;4.20;;;21.80;83.60;;;21.54;66.75;96739.84;5054446;28;20474;-81
2023/09/21 09:40:38;;;;;;;4.13;3.57;;;21.80;84.10;;;21.85;65.73;96733.47;5056268;28;20893;-81
2023/09/21 09:43:06;;;;;;;4.53;3.80;;;21.90;83.90;;;21.87;65.09;96738.63;5057862;28;20913;-82
2023/09/21 09:45:37;;;;;;;4.50;4.10;;;22.00;83.40;;;21.88;65.97;96738.34;5060596;28;20461;-81
2023/09/21 09:48:13;;;;;;;4.80;3.60;;;22.00;83.70;;;22.19;64.45;96742.06;5056539;28;20459;-79
2023/09/21 09:50:42;;;;;;;7.77;4.57;;;22.20;83.70;;;22.14;64.20;96722.97;5055212;28;20434;-83
2023/09/21 09:53:13;;;;;;;4.87;3.40;;;22.20;83.10;;;22.25;63.72;96728.97;5058383;28;20534;-82
2023/09/21 09:55:42;;;;;;;6.10;3.87;;;22.30;82.90;;;22.51;63.11;96723.47;5063294;28;20587;-86
2023/09/21 09:58:11;;;;;;;4.13;3.83;;;22.50;82.80;;;22.25;62.74;96677.53;5054963;28;20479;-86
2023/09/21 10:00:41;;;;;;;3.40;3.20;;;22.60;82.50;;;22.35;62.96;96717.66;5065090;28;20453;-85
2023/09/21 10:03:09;;;;;;;4.10;3.80;;;22.50;82.00;;;22.44;62.59;96721.19;5059800;28;20452;-85
2023/09/21 10:05:38;;;;;;;3.97;3.67;;;22.50;81.80;;;22.28;62.68;96718.13;5067677;28;20465;-86
2023/09/21 10:08:10;;;;;;;3.77;3.47;;;22.50;81.50;;;22.29;62.49;96714.25;5059172;28;20547;-80
2023/09/21 10:10:44;;;;;;;5.00;4.20;;;22.50;81.40;;;22.36;62.88;96705.50;5062284;28;20461;-85
2023/09/21 10:13:11;;;;;;;4.60;3.90;;;22.40;81.70;;;22.25;62.13;96712.47;5070272;28;20454;-86
2023/09/21 10:15:41;;;;;;;4.67;4.20;;;22.50;80.90;;;22.26;62.68;96708.59;5062289;28;20453;-84
2023/09/21 10:18:10;;;;;;;3.73;3.43;;;22.40;81.40;;;22.72;61.62;96709.84;5077863;28;20474;-85
2023/09/21 10:20:38;;;;;;;4.10;3.60;;;22.60;81.30;;;22.89;60.92;96698.00;5060071;28;20443;-86
2023/09/21 10:23:09;;;;;;;4.30;4.00;;;22.80;80.80;;;22.97;60.18;96692.78;5063356;28;20501;-86
2023/09/21 10:25:39;;;;;;;6.30;3.87;;;22.90;80.30;;;22.95;60.00;96667.50;5079504;28;20440;-81